createdAt,value
2023-04-20T00:00:49.756Z,248.82
2023-04-20T00:01:49.766Z,255.75
2023-04-20T00:02:50.017Z,269.73
2023-04-20T00:03:50.164Z,274.21
2023-04-20T00:04:50.176Z,281.69
2023-04-20T00:05:50.236Z,273.98
2023-04-20T00:06:50.383Z,278.60
2023-04-20T00:07:50.471Z,272.18
2023-04-20T00:08:50.593Z,274.67
2023-04-20T00:09:50.690Z,258.96
2023-04-20T00:10:50.844Z,262.66
2023-04-20T00:11:50.934Z,259.16
2023-04-20T00:12:51.133Z,259.77
2023-04-20T00:13:51.238Z,270.40
2023-04-20T00:14:51.391Z,261.83
2023-04-20T00:15:51.509Z,253.21
2023-04-20T00:16:51.685Z,246.78
2023-04-20T00:17:51.803Z,246.04
2023-04-20T00:18:51.865Z,246.60
2023-04-20T00:19:52.049Z,242.97
2023-04-20T00:20:52.231Z,248.63
2023-04-20T00:21:52.281Z,241.55
2023-04-20T00:22:52.370Z,232.38
2023-04-20T00:23:52.535Z,233.37
2023-04-20T00:24:52.659Z,233.86
2023-04-20T00:25:52.737Z,236.37
2023-04-20T00:26:52.885Z,237.39
2023-04-20T00:27:53.028Z,221.63
2023-04-20T00:28:53.217Z,224.64
2023-04-20T00:29:53.335Z,228.84
2023-04-20T00:30:53.539Z,231.57
2023-04-20T00:31:53.578Z,247.15
2023-04-20T00:32:53.759Z,250.52
2023-04-20T00:33:53.893Z,258.76
2023-04-20T00:34:53.937Z,266.69
2023-04-20T00:35:54.080Z,256.75
2023-04-20T00:36:54.237Z,248.07
2023-04-20T00:37:54.376Z,248.45
2023-04-20T00:38:54.496Z,256.95
2023-04-20T00:39:54.627Z,258.35
2023-04-20T00:40:54.820Z,251.47
2023-04-20T00:41:54.864Z,258.35
2023-04-20T00:42:54.966Z,259.77
2023-04-20T00:43:55.045Z,256.55
2023-04-20T00:44:55.399Z,252.82
2023-04-20T00:45:55.414Z,252.05
2023-04-20T00:46:55.478Z,244.95
2023-04-20T00:47:55.614Z,245.31
2023-04-20T00:48:55.743Z,244.95
2023-04-20T00:49:55.848Z,245.68
2023-04-20T00:50:55.915Z,247.33
2023-04-20T00:51:56.079Z,246.41
2023-04-20T00:52:56.230Z,239.97
2023-04-20T00:53:56.337Z,234.69
2023-04-20T00:54:56.499Z,227.11
2023-04-20T00:55:56.625Z,228.52
2023-04-20T00:56:56.693Z,225.87
2023-04-20T00:57:56.771Z,221.04
2023-04-20T00:58:56.919Z,220.74
2023-04-20T00:59:57.063Z,222.23
2023-04-20T01:00:57.327Z,225.56
2023-04-20T01:01:57.436Z,231.57
2023-04-20T01:02:57.544Z,226.49
2023-04-20T01:03:57.619Z,222.23
2023-04-20T01:04:57.677Z,219.42
2023-04-20T01:05:57.846Z,216.12
2023-04-20T01:06:57.941Z,215.98
2023-04-20T01:07:58.036Z,218.99
2023-04-20T01:08:58.184Z,216.69
2023-04-20T01:09:58.285Z,216.55
2023-04-20T01:10:58.443Z,226.49
2023-04-20T01:11:58.540Z,229.80
2023-04-20T01:12:58.674Z,228.05
2023-04-20T01:13:58.812Z,236.54
2023-04-20T01:14:58.998Z,228.52
2023-04-20T01:15:59.145Z,228.84
2023-04-20T01:16:59.197Z,228.84
2023-04-20T01:17:59.352Z,228.84
2023-04-20T01:18:59.504Z,230.60
2023-04-20T01:19:59.588Z,225.72
2023-04-20T01:20:59.829Z,229.64
2023-04-20T01:21:59.822Z,229.16
2023-04-20T01:23:00.024Z,229.80
2023-04-20T01:24:00.112Z,222.68
2023-04-20T01:25:00.216Z,219.13
2023-04-20T01:26:00.396Z,218.70
2023-04-20T01:27:00.440Z,219.42
2023-04-20T01:28:00.553Z,216.98
2023-04-20T01:29:00.677Z,214.02
2023-04-20T01:30:00.842Z,217.69
2023-04-20T01:31:00.984Z,209.95
2023-04-20T01:32:01.068Z,211.56
2023-04-20T01:33:01.217Z,204.49
2023-04-20T01:34:01.347Z,208.10
2023-04-20T01:35:01.456Z,211.02
2023-04-20T01:36:01.646Z,216.55
2023-04-20T01:37:01.766Z,216.55
2023-04-20T01:38:01.885Z,222.08
2023-04-20T01:39:02.029Z,226.18
2023-04-20T01:40:02.097Z,212.79
2023-04-20T01:41:02.315Z,215.14
2023-04-20T01:42:02.335Z,224.03
2023-04-20T01:43:02.440Z,236.37
2023-04-20T01:44:02.562Z,237.05
2023-04-20T01:45:02.690Z,243.15
2023-04-20T01:46:02.803Z,244.59
2023-04-20T01:47:03.013Z,250.90
2023-04-20T01:48:03.204Z,249.57
2023-04-20T01:49:03.220Z,255.95
2023-04-20T01:50:03.388Z,263.08
2023-04-20T01:51:03.550Z,267.33
2023-04-20T01:52:03.680Z,269.51
2023-04-20T01:53:03.793Z,272.85
2023-04-20T01:54:03.910Z,275.58
2023-04-20T01:55:04.009Z,264.77
2023-04-20T01:56:04.150Z,273.53
2023-04-20T01:57:04.226Z,272.18
2023-04-20T01:58:04.376Z,280.49
2023-04-20T01:59:04.524Z,286.82
2023-04-20T02:00:04.655Z,285.83
2023-04-20T02:01:04.820Z,290.35
2023-04-20T02:02:04.939Z,296.33
2023-04-20T02:03:05.076Z,301.47
2023-04-20T02:04:05.111Z,296.33
2023-04-20T02:05:05.219Z,299.01
2023-04-20T02:06:05.399Z,292.66
2023-04-20T02:07:05.467Z,292.66
2023-04-20T02:08:05.613Z,292.40
2023-04-20T02:09:05.934Z,293.18
2023-04-20T02:10:05.820Z,294.75
2023-04-20T02:11:06.000Z,302.29
2023-04-20T02:12:06.035Z,313.18
2023-04-20T02:13:06.233Z,307.92
2023-04-20T02:14:06.318Z,300.92
2023-04-20T02:15:06.420Z,296.60
2023-04-20T02:16:06.505Z,309.37
2023-04-20T02:17:06.692Z,320.46
2023-04-20T02:18:06.880Z,322.97
2023-04-20T02:19:06.917Z,322.65
2023-04-20T02:20:07.079Z,303.68
2023-04-20T02:21:07.273Z,302.02
2023-04-20T02:22:07.322Z,311.70
2023-04-20T02:23:07.470Z,321.40
2023-04-20T02:24:07.654Z,330.39
2023-04-20T02:25:07.777Z,338.86
2023-04-20T02:26:07.873Z,336.79
2023-04-20T02:27:07.984Z,331.05
2023-04-20T02:28:08.092Z,321.40
2023-04-20T02:29:08.233Z,319.53
2023-04-20T02:30:08.379Z,323.28
2023-04-20T02:31:08.526Z,324.87
2023-04-20T02:32:08.599Z,332.72
2023-04-20T02:33:08.752Z,320.15
2023-04-20T02:34:08.851Z,311.41
2023-04-20T02:35:09.030Z,317.69
2023-04-20T02:36:09.105Z,318.00
2023-04-20T02:37:09.230Z,317.39
2023-04-20T02:38:09.388Z,319.23
2023-04-20T02:39:09.474Z,328.10
2023-04-20T02:40:09.667Z,330.72
2023-04-20T02:41:11.327Z,330.72
2023-04-20T02:42:09.876Z,326.48
2023-04-20T02:43:10.046Z,329.73
2023-04-20T02:44:10.173Z,334.74
2023-04-20T02:45:10.318Z,337.47
2023-04-20T02:46:10.455Z,336.10
2023-04-20T02:47:10.596Z,327.77
2023-04-20T02:48:10.708Z,325.19
2023-04-20T02:49:10.814Z,340.60
2023-04-20T02:50:10.914Z,340.25
2023-04-20T02:51:11.029Z,338.51
2023-04-20T02:52:11.144Z,324.55
2023-04-20T02:53:11.293Z,326.15
2023-04-20T02:54:11.388Z,324.87
2023-04-20T02:55:11.555Z,309.37
2023-04-20T02:56:12.207Z,310.82
2023-04-20T02:57:11.820Z,325.51
2023-04-20T02:58:11.921Z,336.44
2023-04-20T02:59:12.044Z,338.17
2023-04-20T03:00:12.133Z,346.68
2023-04-20T03:01:12.370Z,348.87
2023-04-20T03:02:12.439Z,345.59
2023-04-20T03:03:12.632Z,347.77
2023-04-20T03:04:12.729Z,347.40
2023-04-20T03:05:12.764Z,349.24
2023-04-20T03:06:12.871Z,345.59
2023-04-20T03:07:14.686Z,350.72
2023-04-20T03:08:13.110Z,344.87
2023-04-20T03:09:13.268Z,357.16
2023-04-20T03:10:13.364Z,356.78
2023-04-20T03:11:13.456Z,366.27
2023-04-20T03:12:13.597Z,365.86
2023-04-20T03:13:13.706Z,370.79
2023-04-20T03:14:13.796Z,379.78
2023-04-20T03:15:13.896Z,370.79
2023-04-20T03:16:14.047Z,375.84
2023-04-20T03:17:14.218Z,369.54
2023-04-20T03:18:14.202Z,351.47
2023-04-20T03:19:14.299Z,349.98
2023-04-20T03:20:14.406Z,357.94
2023-04-20T03:21:14.655Z,349.24
2023-04-20T03:22:14.646Z,356.78
2023-04-20T03:23:14.743Z,335.42
2023-04-20T03:24:14.873Z,343.43
2023-04-20T03:25:14.964Z,353.72
2023-04-20T03:26:15.094Z,354.48
2023-04-20T03:27:15.267Z,371.20
2023-04-20T03:28:15.418Z,382.59
2023-04-20T03:29:15.758Z,372.04
2023-04-20T03:30:15.580Z,369.54
2023-04-20T03:31:15.717Z,352.22
2023-04-20T03:32:15.838Z,353.72
2023-04-20T03:33:16.062Z,349.98
2023-04-20T03:34:16.138Z,360.67
2023-04-20T03:35:16.225Z,361.07
2023-04-20T03:36:16.369Z,351.47
2023-04-20T03:37:16.472Z,347.04
2023-04-20T03:38:16.638Z,341.66
2023-04-20T03:39:17.064Z,334.06
2023-04-20T03:40:16.853Z,328.10
2023-04-20T03:41:17.022Z,331.05
2023-04-20T03:42:17.130Z,331.05
2023-04-20T03:43:17.269Z,333.05
2023-04-20T03:44:17.374Z,324.55
2023-04-20T03:45:17.474Z,322.02
2023-04-20T03:46:17.615Z,310.53
2023-04-20T03:47:17.790Z,307.92
2023-04-20T03:48:17.926Z,312.29
2023-04-20T03:49:18.173Z,326.15
2023-04-20T03:50:18.102Z,331.72
2023-04-20T03:51:18.228Z,318.61
2023-04-20T03:52:18.367Z,314.67
2023-04-20T03:53:18.571Z,320.77
2023-04-20T03:54:18.623Z,313.18
2023-04-20T03:55:18.827Z,325.19
2023-04-20T03:56:18.932Z,322.97
2023-04-20T03:57:18.989Z,322.34
2023-04-20T03:58:19.121Z,327.12
2023-04-20T03:59:19.373Z,337.82
2023-04-20T04:00:19.340Z,331.39
2023-04-20T04:01:19.534Z,337.47
2023-04-20T04:02:19.608Z,337.13
2023-04-20T04:03:19.899Z,340.60
2023-04-20T04:04:20.072Z,338.17
2023-04-20T04:05:20.027Z,345.95
2023-04-20T04:06:20.140Z,340.60
2023-04-20T04:07:20.243Z,325.19
2023-04-20T04:08:20.358Z,333.73
2023-04-20T04:09:20.537Z,329.40
2023-04-20T04:10:20.582Z,320.15
2023-04-20T04:11:20.687Z,324.23
2023-04-20T04:12:20.780Z,327.45
2023-04-20T04:13:20.892Z,320.77
2023-04-20T04:14:21.080Z,324.55
2023-04-20T04:15:21.175Z,330.72
2023-04-20T04:16:21.364Z,321.08
2023-04-20T04:17:21.407Z,318.00
2023-04-20T04:18:21.488Z,311.41
2023-04-20T04:19:21.688Z,309.37
2023-04-20T04:20:21.782Z,306.21
2023-04-20T04:21:21.950Z,307.92
2023-04-20T04:22:22.059Z,306.78
2023-04-20T04:23:22.156Z,298.74
2023-04-20T04:24:22.239Z,292.92
2023-04-20T04:25:22.387Z,294.75
2023-04-20T04:26:22.510Z,297.67
2023-04-20T04:27:22.608Z,297.67
2023-04-20T04:28:22.702Z,287.82
2023-04-20T04:29:22.889Z,276.73
2023-04-20T04:30:23.018Z,266.47
2023-04-20T04:31:23.145Z,241.55
2023-04-20T04:32:23.256Z,225.87
2023-04-20T04:33:23.366Z,212.51
2023-04-20T04:34:27.040Z,196.12
2023-04-20T04:35:23.618Z,197.53
2023-04-20T04:36:23.744Z,192.47
2023-04-20T04:37:23.854Z,189.92
2023-04-20T04:38:24.010Z,182.15
2023-04-20T04:39:24.126Z,180.59
2023-04-20T04:40:24.222Z,185.97
2023-04-20T04:41:24.416Z,186.18
2023-04-20T04:42:24.722Z,185.36
2023-04-20T04:43:24.627Z,185.16
2023-04-20T04:44:24.794Z,184.35
2023-04-20T04:45:24.856Z,183.34
2023-04-20T04:46:25.563Z,180.01
2023-04-20T04:47:25.173Z,179.43
2023-04-20T04:48:25.203Z,177.53
2023-04-20T04:49:25.293Z,175.68
2023-04-20T04:50:25.492Z,175.31
2023-04-20T04:51:25.589Z,171.38
2023-04-20T04:52:25.721Z,165.64
2023-04-20T04:53:25.832Z,160.58
2023-04-20T04:54:25.923Z,162.60
2023-04-20T04:55:26.222Z,165.80
2023-04-20T04:56:26.216Z,165.64
2023-04-20T04:57:26.336Z,169.99
2023-04-20T04:58:26.431Z,171.03
2023-04-20T04:59:26.611Z,169.31
2023-04-20T05:00:26.727Z,161.66
2023-04-20T05:01:26.932Z,158.16
2023-04-20T05:02:27.082Z,156.83
2023-04-20T05:03:27.336Z,153.40
2023-04-20T05:04:27.364Z,156.98
2023-04-20T05:05:27.351Z,152.70
2023-04-20T05:06:27.508Z,147.87
2023-04-20T05:07:27.597Z,145.06
2023-04-20T05:08:27.787Z,141.40
2023-04-20T05:09:27.883Z,141.76
2023-04-20T05:10:28.060Z,138.37
2023-04-20T05:11:28.152Z,140.46
2023-04-20T05:12:28.284Z,138.26
2023-04-20T05:13:28.460Z,134.71
2023-04-20T05:14:28.523Z,129.93
2023-04-20T05:15:28.615Z,128.83
2023-04-20T05:16:28.984Z,126.12
2023-04-20T05:17:28.850Z,119.41
2023-04-20T05:18:28.933Z,117.16
2023-04-20T05:19:29.052Z,117.65
2023-04-20T05:20:29.163Z,116.27
2023-04-20T05:21:29.285Z,113.52
2023-04-20T05:22:29.343Z,109.89
2023-04-20T05:23:29.497Z,110.32
2023-04-20T05:24:33.231Z,108.68
2023-04-20T05:25:29.717Z,105.21
2023-04-20T05:26:29.851Z,100.43
2023-04-20T05:27:30.035Z,97.46
2023-04-20T05:28:30.128Z,94.75
2023-04-20T05:29:30.281Z,90.46
2023-04-20T05:30:30.428Z,92.05
2023-04-20T05:31:30.549Z,92.56
2023-04-20T05:32:30.717Z,90.76
2023-04-20T05:33:30.880Z,92.35
2023-04-20T05:34:30.955Z,94.11
2023-04-20T05:35:31.116Z,94.11
2023-04-20T05:36:31.201Z,94.32
2023-04-20T05:37:31.330Z,89.50
2023-04-20T05:38:31.529Z,85.32
2023-04-20T05:39:31.595Z,82.72
2023-04-20T05:40:31.737Z,78.40
2023-04-20T05:41:31.961Z,74.18
2023-04-20T05:42:32.009Z,72.33
2023-04-20T05:43:32.129Z,70.15
2023-04-20T05:44:32.305Z,65.87
2023-04-20T05:45:32.383Z,62.86
2023-04-20T05:46:32.489Z,61.39
2023-04-20T05:47:32.648Z,59.74
2023-04-20T05:48:32.769Z,58.41
2023-04-20T05:49:32.932Z,56.94
2023-04-20T05:50:33.058Z,58.49
2023-04-20T05:51:33.162Z,61.98
2023-04-20T05:52:33.341Z,63.62
2023-04-20T05:53:33.458Z,66.02
2023-04-20T05:54:33.560Z,67.40
2023-04-20T05:55:33.736Z,68.44
2023-04-20T05:56:33.839Z,70.33
2023-04-20T05:57:33.979Z,72.14
2023-04-20T05:58:34.132Z,71.29
2023-04-20T05:59:34.269Z,69.69
2023-04-20T06:00:34.380Z,68.61
2023-04-20T06:01:34.561Z,66.54
2023-04-20T06:02:34.755Z,66.86
2023-04-20T06:03:35.025Z,66.86
2023-04-20T06:04:35.191Z,67.18
2023-04-20T06:05:35.171Z,66.86
2023-04-20T06:06:35.156Z,68.05
2023-04-20T06:07:35.349Z,70.39
2023-04-20T06:08:35.474Z,70.45
2023-04-20T06:09:35.556Z,70.04
2023-04-20T06:10:35.718Z,70.57
2023-04-20T06:11:35.823Z,71.83
2023-04-20T06:12:35.980Z,70.04
2023-04-20T06:13:36.144Z,70.21
2023-04-20T06:14:36.246Z,69.98
2023-04-20T06:15:36.447Z,70.04
2023-04-20T06:16:36.530Z,70.80
2023-04-20T06:17:36.694Z,69.86
2023-04-20T06:18:36.807Z,69.17
2023-04-20T06:19:36.922Z,68.83
2023-04-20T06:20:37.050Z,67.40
2023-04-20T06:21:37.286Z,64.60
2023-04-20T06:22:37.324Z,66.18
2023-04-20T06:23:37.481Z,67.34
2023-04-20T06:24:37.658Z,66.60
2023-04-20T06:25:37.706Z,63.91
2023-04-20T06:26:37.849Z,65.25
2023-04-20T06:27:37.990Z,68.83
2023-04-20T06:28:38.193Z,69.34
2023-04-20T06:29:38.246Z,69.34
2023-04-20T06:30:38.338Z,66.65
2023-04-20T06:31:38.513Z,63.72
2023-04-20T06:32:38.648Z,63.82
2023-04-20T06:33:38.777Z,62.72
2023-04-20T06:34:38.854Z,62.30
2023-04-20T06:35:38.984Z,61.30
2023-04-20T06:36:39.126Z,61.04
2023-04-20T06:37:39.280Z,61.12
2023-04-20T06:38:39.407Z,60.86
2023-04-20T06:39:39.529Z,59.15
2023-04-20T06:40:39.634Z,55.26
2023-04-20T06:41:39.877Z,53.43
2023-04-20T06:42:39.903Z,52.04
2023-04-20T06:43:40.048Z,51.25
2023-04-20T06:44:40.290Z,47.14
2023-04-20T06:45:40.324Z,48.25
2023-04-20T06:46:40.536Z,49.24
2023-04-20T06:47:40.677Z,50.30
2023-04-20T06:48:40.730Z,50.42
2023-04-20T06:49:40.869Z,50.76
2023-04-20T06:50:41.008Z,50.69
2023-04-20T06:51:41.244Z,52.24
2023-04-20T06:52:41.286Z,54.65
2023-04-20T06:53:41.426Z,55.70
2023-04-20T06:54:41.671Z,55.26
2023-04-20T06:55:41.705Z,54.44
2023-04-20T06:56:41.839Z,53.71
2023-04-20T06:57:42.005Z,52.76
2023-04-20T06:58:42.086Z,51.53
2023-04-20T06:59:42.234Z,52.99
2023-04-20T07:00:42.346Z,55.66
2023-04-20T07:01:42.594Z,55.88
2023-04-20T07:02:42.801Z,56.52
2023-04-20T07:03:42.896Z,58.33
2023-04-20T07:04:42.996Z,59.57
2023-04-20T07:05:43.014Z,58.94
2023-04-20T07:06:43.114Z,55.44
2023-04-20T07:07:43.303Z,51.63
2023-04-20T07:08:43.390Z,48.81
2023-04-20T07:09:43.535Z,45.68
2023-04-20T07:10:43.737Z,43.55
2023-04-20T07:11:43.861Z,41.09
2023-04-20T07:12:44.249Z,40.34
2023-04-20T07:13:44.160Z,41.41
2023-04-20T07:14:44.213Z,43.37
2023-04-20T07:15:44.378Z,44.24
2023-04-20T07:16:44.882Z,45.83
2023-04-20T07:17:44.648Z,46.49
2023-04-20T07:18:44.802Z,46.59
2023-04-20T07:19:44.915Z,47.38
2023-04-20T07:20:45.034Z,45.78
2023-04-20T07:21:45.247Z,45.98
2023-04-20T07:22:45.324Z,47.49
2023-04-20T07:23:45.494Z,48.67
2023-04-20T07:24:45.545Z,47.43
2023-04-20T07:25:45.678Z,48.19
2023-04-20T07:26:45.830Z,47.78
2023-04-20T07:27:46.006Z,48.50
2023-04-20T07:28:46.126Z,48.25
2023-04-20T07:29:46.222Z,47.87
2023-04-20T07:30:46.352Z,48.67
2023-04-20T07:31:46.526Z,49.24
2023-04-20T07:32:46.656Z,48.84
2023-04-20T07:33:46.784Z,46.49
2023-04-20T07:34:46.917Z,47.01
2023-04-20T07:35:47.035Z,45.53
2023-04-20T07:36:47.129Z,46.08
2023-04-20T07:37:47.297Z,48.31
2023-04-20T07:38:47.491Z,49.07
2023-04-20T07:39:47.529Z,48.22
2023-04-20T07:40:47.679Z,46.23
2023-04-20T07:41:47.822Z,45.88
2023-04-20T07:42:47.940Z,44.66
2023-04-20T07:43:48.060Z,47.11
2023-04-20T07:44:48.263Z,49.10
2023-04-20T07:45:48.364Z,48.36
2023-04-20T07:46:48.550Z,45.73
2023-04-20T07:47:48.664Z,44.76
2023-04-20T07:48:48.752Z,44.33
2023-04-20T07:49:48.866Z,44.01
2023-04-20T07:50:49.062Z,43.46
2023-04-20T07:51:49.144Z,43.74
2023-04-20T07:52:49.263Z,40.57
2023-04-20T07:53:49.393Z,38.11
2023-04-20T07:54:49.552Z,36.87
2023-04-20T07:55:50.983Z,36.91
2023-04-20T07:56:49.790Z,38.18
2023-04-20T07:57:49.911Z,38.71
2023-04-20T07:58:50.048Z,40.30
2023-04-20T07:59:50.196Z,42.33
2023-04-20T08:00:50.352Z,41.86
2023-04-20T08:01:50.521Z,44.15
2023-04-20T08:02:50.792Z,42.76
2023-04-20T08:03:50.873Z,41.37
2023-04-20T08:04:51.106Z,43.24
2023-04-20T08:05:51.106Z,45.78
2023-04-20T08:06:51.173Z,43.64
2023-04-20T08:07:51.271Z,43.42
2023-04-20T08:08:51.420Z,40.65
2023-04-20T08:09:51.536Z,40.57
2023-04-20T08:10:51.688Z,41.17
2023-04-20T08:11:51.875Z,41.09
2023-04-20T08:12:52.750Z,39.03
2023-04-20T08:13:52.095Z,38.67
2023-04-20T08:14:52.195Z,39.62
2023-04-20T08:15:52.399Z,36.81
2023-04-20T08:16:52.448Z,35.12
2023-04-20T08:17:52.605Z,36.27
2023-04-20T08:18:52.745Z,39.62
2023-04-20T08:19:52.846Z,41.37
2023-04-20T08:20:52.988Z,42.54
2023-04-20T08:21:53.246Z,40.22
2023-04-20T08:22:53.306Z,39.51
2023-04-20T08:23:53.424Z,39.21
2023-04-20T08:24:53.534Z,37.53
2023-04-20T08:25:53.694Z,36.52
2023-04-20T08:26:53.806Z,35.24
2023-04-20T08:27:53.958Z,33.13
2023-04-20T08:28:54.052Z,31.14
2023-04-20T08:29:54.134Z,29.73
2023-04-20T08:30:54.277Z,29.04
2023-04-20T08:31:54.591Z,29.04
2023-04-20T08:32:54.644Z,28.39
2023-04-20T08:33:54.683Z,28.31
2023-04-20T08:34:54.967Z,28.22
2023-04-20T08:35:54.895Z,27.53
2023-04-20T08:36:55.045Z,27.64
2023-04-20T08:37:55.240Z,27.88
2023-04-20T08:38:55.334Z,27.57
2023-04-20T08:39:55.453Z,26.59
2023-04-20T08:40:55.618Z,25.76
2023-04-20T08:41:55.837Z,24.35
2023-04-20T08:42:55.897Z,23.27
2023-04-20T08:43:55.986Z,22.31
2023-04-20T08:44:56.179Z,21.53
2023-04-20T08:45:56.266Z,21.53
2023-04-20T08:46:56.543Z,22.05
2023-04-20T08:47:56.546Z,22.48
2023-04-20T08:48:56.683Z,22.55
2023-04-20T08:49:56.791Z,22.79
2023-04-20T08:50:56.926Z,22.97
2023-04-20T08:51:57.073Z,23.35
2023-04-20T08:52:57.210Z,23.27
2023-04-20T08:53:57.351Z,23.14
2023-04-20T08:54:58.084Z,23.35
2023-04-20T08:55:58.566Z,23.51
2023-04-20T08:56:57.803Z,24.01
2023-04-20T08:57:57.892Z,23.99
2023-04-20T08:58:58.042Z,23.25
2023-04-20T08:59:58.159Z,22.40
2023-04-20T09:00:58.292Z,22.05
2023-04-20T09:01:58.667Z,22.40
2023-04-20T09:02:58.633Z,22.43
2023-04-20T09:03:58.776Z,22.79
2023-04-20T09:04:58.768Z,22.60
2023-04-20T09:05:58.835Z,22.33
2023-04-20T09:06:58.976Z,22.22
2023-04-20T09:07:59.129Z,21.91
2023-04-20T09:08:59.242Z,21.73
2023-04-20T09:09:59.360Z,22.22
2023-04-20T09:10:59.501Z,22.33
2023-04-20T09:11:59.652Z,22.19
2023-04-20T09:12:59.761Z,22.50
2023-04-20T09:13:59.923Z,22.60
2023-04-20T09:15:00.043Z,23.14
2023-04-20T09:16:00.177Z,23.22
2023-04-20T09:17:00.325Z,23.35
2023-04-20T09:18:00.465Z,23.14
2023-04-20T09:19:00.572Z,22.60
2023-04-20T09:20:00.767Z,22.19
2023-04-20T09:21:00.849Z,21.53
2023-04-20T09:22:01.097Z,21.18
2023-04-20T09:23:01.117Z,20.83
2023-04-20T09:24:01.316Z,20.26
2023-04-20T09:25:01.457Z,19.92
2023-04-20T09:26:01.541Z,20.00
2023-04-20T09:27:01.690Z,19.83
2023-04-20T09:28:01.790Z,19.60
2023-04-20T09:29:01.935Z,19.75
2023-04-20T09:30:02.096Z,19.64
2023-04-20T09:31:02.207Z,19.58
2023-04-20T09:32:03.469Z,19.73
2023-04-20T09:33:02.761Z,19.69
2023-04-20T09:34:02.685Z,19.69
2023-04-20T09:35:02.749Z,19.42
2023-04-20T09:36:02.893Z,19.46
2023-04-20T09:37:03.178Z,19.57
2023-04-20T09:38:03.166Z,19.57
2023-04-20T09:39:03.350Z,19.53
2023-04-20T09:40:03.453Z,19.51
2023-04-20T09:41:03.619Z,19.57
2023-04-20T09:42:03.783Z,19.90
2023-04-20T09:43:03.899Z,19.90
2023-04-20T09:44:03.988Z,19.86
2023-04-20T09:45:04.145Z,19.94
2023-04-20T09:46:04.426Z,20.03
2023-04-20T09:47:04.369Z,19.94
2023-04-20T09:48:04.524Z,19.69
2023-04-20T09:49:04.635Z,19.41
2023-04-20T09:50:19.476Z,19.17
2023-04-20T09:51:05.914Z,19.12
2023-04-20T09:52:05.115Z,19.25
2023-04-20T09:53:05.159Z,19.10
2023-04-20T09:54:05.324Z,18.83
2023-04-20T09:55:05.466Z,18.78
2023-04-20T09:56:05.584Z,18.65
2023-04-20T09:57:05.698Z,18.57
2023-04-20T09:58:05.829Z,18.51
2023-04-20T09:59:05.984Z,18.40
2023-04-20T10:00:06.132Z,18.37
2023-04-20T10:01:06.344Z,18.34
2023-04-20T10:02:06.593Z,18.05
2023-04-20T10:03:06.627Z,17.82
2023-04-20T10:04:06.845Z,17.65
2023-04-20T10:05:06.808Z,17.67
2023-04-20T10:06:06.902Z,17.54
2023-04-20T10:07:06.998Z,17.38
2023-04-20T10:08:07.185Z,17.41
2023-04-20T10:09:07.314Z,17.56
2023-04-20T10:10:07.417Z,17.54
2023-04-20T10:11:07.590Z,17.44
2023-04-20T10:12:07.685Z,17.30
2023-04-20T10:13:07.876Z,17.53
2023-04-20T10:14:07.962Z,17.93
2023-04-20T10:15:08.128Z,18.35
2023-04-20T10:16:08.281Z,18.43
2023-04-20T10:17:08.860Z,18.26
2023-04-20T10:18:08.698Z,18.34
2023-04-20T10:19:09.247Z,18.39
2023-04-20T10:20:08.720Z,18.43
2023-04-20T10:21:08.889Z,18.48
2023-04-20T10:22:09.077Z,18.55
2023-04-20T10:23:09.153Z,18.40
2023-04-20T10:24:09.289Z,18.04
2023-04-20T10:25:09.376Z,17.90
2023-04-20T10:26:09.555Z,17.76
2023-04-20T10:27:09.643Z,18.18
2023-04-20T10:28:09.808Z,17.96
2023-04-20T10:29:09.864Z,18.04
2023-04-20T10:30:10.019Z,18.31
2023-04-20T10:31:10.190Z,18.65
2023-04-20T10:32:10.272Z,18.85
2023-04-20T10:33:10.406Z,18.92
2023-04-20T10:34:10.573Z,18.90
2023-04-20T10:35:10.679Z,18.61
2023-04-20T10:36:10.870Z,19.03
2023-04-20T10:37:10.912Z,18.76
2023-04-20T10:38:11.061Z,18.65
2023-04-20T10:39:11.146Z,18.50
2023-04-20T10:40:11.282Z,18.43
2023-04-20T10:41:11.427Z,18.21
2023-04-20T10:42:11.605Z,17.75
2023-04-20T10:43:11.687Z,18.05
2023-04-20T10:44:11.799Z,18.60
2023-04-20T10:45:11.888Z,18.85
2023-04-20T10:46:12.066Z,18.18
2023-04-20T10:47:12.158Z,17.75
2023-04-20T10:48:12.381Z,18.01
2023-04-20T10:49:12.425Z,18.13
2023-04-20T10:50:12.599Z,18.08
2023-04-20T10:51:12.724Z,18.05
2023-04-20T10:52:12.835Z,18.80
2023-04-20T10:53:12.965Z,18.97
2023-04-20T10:54:13.131Z,20.40
2023-04-20T10:55:13.243Z,21.44
2023-04-20T10:56:13.396Z,21.96
2023-04-20T10:57:13.545Z,22.03
2023-04-20T10:58:13.669Z,21.89
2023-04-20T10:59:13.760Z,21.67
2023-04-20T11:00:13.905Z,21.31
2023-04-20T11:01:14.088Z,20.64
2023-04-20T11:02:14.424Z,20.32
2023-04-20T11:03:14.396Z,20.13
2023-04-20T11:04:17.022Z,20.07
2023-04-20T11:05:14.726Z,19.77
2023-04-20T11:06:14.662Z,19.64
2023-04-20T11:07:14.827Z,20.05
2023-04-20T11:08:14.956Z,20.13
2023-04-20T11:09:15.202Z,19.79
2023-04-20T11:10:15.246Z,19.57
2023-04-20T11:11:15.334Z,19.53
2023-04-20T11:12:15.440Z,19.14
2023-04-20T11:13:15.580Z,18.92
2023-04-20T11:14:15.707Z,19.10
2023-04-20T11:15:15.806Z,19.26
2023-04-20T11:16:15.953Z,19.14
2023-04-20T11:17:16.176Z,19.03
2023-04-20T11:18:16.294Z,19.02
2023-04-20T11:19:16.400Z,19.14
2023-04-20T11:20:16.511Z,19.79
2023-04-20T11:21:16.597Z,20.21
2023-04-20T11:22:16.850Z,20.48
2023-04-20T11:23:16.892Z,21.06
2023-04-20T11:24:17.106Z,21.94
2023-04-20T11:25:17.162Z,22.77
2023-04-20T11:26:17.380Z,24.10
2023-04-20T11:27:17.402Z,24.75
2023-04-20T11:28:17.527Z,24.52
2023-04-20T11:29:17.905Z,23.80
2023-04-20T11:30:17.826Z,23.35
2023-04-20T11:31:17.976Z,22.55
2023-04-20T11:32:18.190Z,22.03
2023-04-20T11:33:18.379Z,22.12
2023-04-20T11:34:18.303Z,22.33
2023-04-20T11:35:18.470Z,22.60
2023-04-20T11:36:18.599Z,22.94
2023-04-20T11:37:18.750Z,23.25
2023-04-20T11:38:18.835Z,22.67
2023-04-20T11:39:19.247Z,21.62
2023-04-20T11:40:19.121Z,21.10
2023-04-20T11:41:19.204Z,21.06
2023-04-20T11:42:19.445Z,20.19
2023-04-20T11:43:19.502Z,19.37
2023-04-20T11:44:19.626Z,19.37
2023-04-20T11:45:19.817Z,22.72
2023-04-20T11:46:19.929Z,23.48
2023-04-20T11:47:20.149Z,22.84
2023-04-20T11:48:20.169Z,21.60
2023-04-20T11:49:20.255Z,20.62
2023-04-20T11:50:20.412Z,24.65
2023-04-20T11:51:20.534Z,28.94
2023-04-20T11:52:20.616Z,31.51
2023-04-20T11:53:20.803Z,31.42
2023-04-20T11:54:20.904Z,29.46
2023-04-20T11:55:21.053Z,27.64
2023-04-20T11:56:21.179Z,25.99
2023-04-20T11:57:21.290Z,28.07
2023-04-20T11:58:21.430Z,30.49
2023-04-20T11:59:21.833Z,31.78
2023-04-20T12:00:21.652Z,32.61
2023-04-20T12:01:21.847Z,32.95
2023-04-20T12:02:22.082Z,34.54
2023-04-20T12:03:22.441Z,37.10
2023-04-20T12:04:22.456Z,38.99
2023-04-20T12:05:22.340Z,38.11
2023-04-20T12:06:22.443Z,37.87
2023-04-20T12:07:22.523Z,38.28
2023-04-20T12:08:22.671Z,38.46
2023-04-20T12:09:22.845Z,37.04
2023-04-20T12:10:22.945Z,36.87
2023-04-20T12:11:23.107Z,36.02
2023-04-20T12:12:23.250Z,35.03
2023-04-20T12:13:23.334Z,33.26
2023-04-20T12:14:23.484Z,32.59
2023-04-20T12:15:23.631Z,31.66
2023-04-20T12:16:23.834Z,30.40
2023-04-20T12:17:23.953Z,30.49
2023-04-20T12:18:24.028Z,30.80
2023-04-20T12:19:24.163Z,29.88
2023-04-20T12:20:24.308Z,32.09
2023-04-20T12:21:24.472Z,33.60
2023-04-20T12:22:24.670Z,33.13
2023-04-20T12:23:24.738Z,33.10
2023-04-20T12:24:24.834Z,33.93
2023-04-20T12:25:24.938Z,35.38
2023-04-20T12:26:34.884Z,36.94
2023-04-20T12:27:26.222Z,39.32
2023-04-20T12:28:25.376Z,41.74
2023-04-20T12:29:25.535Z,41.95
2023-04-20T12:30:25.593Z,38.74
2023-04-20T12:31:26.581Z,40.15
2023-04-20T12:32:25.861Z,40.38
2023-04-20T12:33:25.957Z,43.02
2023-04-20T12:34:26.167Z,46.39
2023-04-20T12:35:26.229Z,48.92
2023-04-20T12:36:26.431Z,52.43
2023-04-20T12:37:26.498Z,57.29
2023-04-20T12:38:26.658Z,60.68
2023-04-20T12:39:26.763Z,63.91
2023-04-20T12:40:26.876Z,63.91
2023-04-20T12:41:27.033Z,63.62
2023-04-20T12:42:27.235Z,62.44
2023-04-20T12:43:27.323Z,64.45
2023-04-20T12:44:27.462Z,63.58